Laconia, NH (03246)

4:04 PM EDT on July 23, 2016 (GMT -0400)
KNHWEIRS3 | | Change Station
Active Advisory: Severe Thunderstorm Watch

Elev 837 ft 43.55 °N, 71.43 °W | Updated 55 seconds ago

Scattered Clouds
Scattered Clouds
81.8 °F
Feels Like 84 °F
N
0.0
Wind Variable Wind from ENE
Gusts 0.0 mph

Today
High -- | Low -- °F
--% Chance of Precip.
Yesterday
High -- | Low -- °F
Precip. -- in
Pressure 29.78 in
Visibility 10.0 miles
Clouds Few 7000 ft
Scattered Clouds 10000 ft
Scattered Clouds 12000 ft
Heat Index 84 °F
Dew Point 66 °F
Humidity 59%
Rainfall 0.05 in
Snow Depth Not available.
5:26 AM 8:17 PM
Waning Gibbous, 83% visible
METAR KLCI 231956Z AUTO 32007KT 10SM FEW070 SCT100 SCT120 28/18 A2975 RMK AO2 LTG DSNT ALQDS TSB07E43 SLP082 T02780183
Pressure 29.78 in
Visibility 10.0 miles
Clouds Few 7000 ft
Scattered Clouds 10000 ft
Scattered Clouds 12000 ft
Heat Index 84 °F
Dew Point 66 °F
Humidity 59%
Rainfall 0.05 in
Snow Depth Not available.
5:26 AM 8:17 PM
Waning Gibbous, 83% visible
METAR KLCI 231956Z AUTO 32007KT 10SM FEW070 SCT100 SCT120 28/18 A2975 RMK AO2 LTG DSNT ALQDS TSB07E43 SLP082 T02780183

10-Day Weather Forecast

Almanac

Astronomy

Jul. 23, 2016 Rise Set
Actual Time
Civil Twilight
Nautical Twilight
Astronomical Twilight
Moon
Length of Visible Light
Length of Day
Tomorrow will be .
, % of the Moon is Illuminated

Today's Extremes

State Highs State Lows

Community

WunderPhotos

Upload Photos

1,926,909 photos uploaded!

WunderBlog® & News

Nearby

Air Quality

  Air Quality AQ Index Pollutant
Not available.

Snow Depth

Station Depth Elevation

Earthquake Activity

City Distance Mag. Time & Date
Minimum magnitude displayed is 2.5.

Coastal Water Temperatures

Place Temperature

Stations

Nearby Weather Stations

Station Location Temp. Windchill Dew Point Humidity Wind Precip. Elev Updated Type
                   

Watches & Warnings

Severe Thunderstorm Watch
Issued: 4:03 PM EDT Jul. 23, 2016 – National Weather Service

Severe Thunderstorm Watch 411 remains in effect until 800 PM EDT
for the following locations


NH
. New Hampshire counties included are

Belknap Carroll Grafton
Merrimack Sullivan